Time;durP1;ratioP1;P1;durP2;ratioP2;P2;SDS_P1;SDS_P2;PMS_P1;PMS_P2;Temp;Humidity;BMP_temperature;BMP_pressure;BME280_temperature;BME280_humidity;BME280_pressure;Samples;Min_cycle;Max_cycle;Signal;HPM_P1;HPM_P2
2022/04/06 00:02:11;;;;;;;19.17;11.10;;;;;;;7.29;100.00;149491.25;1779388;79;21758;-60
2022/04/06 00:04:39;;;;;;;24.00;11.97;;;;;;;7.30;100.00;149492.53;1779331;80;20980;-60
2022/04/06 00:07:06;;;;;;;28.67;12.50;;;;;;;7.30;100.00;149492.53;1771806;80;21101;-60
2022/04/06 00:09:39;;;;;;;24.15;12.28;;;;;;;7.30;100.00;149493.84;1773595;79;21039;-60
2022/04/06 00:12:05;;;;;;;24.47;11.97;;;;;;;7.29;100.00;149491.25;1782245;79;21074;-59
2022/04/06 00:14:32;;;;;;;24.67;11.75;;;;;;;7.31;100.00;149495.11;1771142;80;21220;-60
2022/04/06 00:17:04;;;;;;;20.90;11.75;;;;;;;7.34;100.00;149501.59;1767170;80;21018;-60
2022/04/06 00:19:34;;;;;;;23.32;12.55;;;;;;;7.36;100.00;149508.03;1776104;80;21082;-61
2022/04/06 00:22:01;;;;;;;30.17;12.70;;;;;;;7.37;100.00;149510.62;1779764;79;21083;-61
2022/04/06 00:24:29;;;;;;;29.48;13.38;;;;;;;7.37;100.00;149510.62;1774667;79;21050;-61
2022/04/06 00:26:58;;;;;;;24.30;13.62;;;;;;;7.38;100.00;149511.95;1775079;80;21512;-59
2022/04/06 00:29:25;;;;;;;27.07;12.90;;;;;;;7.38;100.00;149513.22;1779973;80;21133;-61
2022/04/06 00:31:52;;;;;;;26.90;13.08;;;;;;;7.37;100.00;149510.62;1767759;80;21300;-60
2022/04/06 00:35:28;;;;;;;21.80;12.75;;;;;;;7.40;100.00;149517.12;1781376;79;21178;-61
2022/04/06 00:36:48;;;;;;;24.85;13.60;;;;;;;7.41;100.00;149521.03;1774973;79;20990;-61
2022/04/06 00:39:15;;;;;;;28.95;12.85;;;;;;;7.42;100.00;149523.61;1796400;79;21194;-61
2022/04/06 00:41:42;;;;;;;22.77;12.18;;;;;;;7.41;100.00;149521.03;1797874;79;20921;-60
2022/04/06 00:44:16;;;;;;;28.42;13.43;;;;;;;7.42;100.00;149523.61;1792534;79;21326;-60
2022/04/06 00:46:45;;;;;;;27.45;13.13;;;;;;;7.43;100.00;149526.20;1791714;79;21463;-60
2022/04/06 00:49:14;;;;;;;25.85;12.78;;;;;;;7.45;100.00;149530.06;1794222;79;20962;-60
2022/04/06 00:51:44;;;;;;;23.70;12.50;;;;;;;7.47;100.00;149533.95;1800632;78;21924;-61
2022/04/06 00:54:15;;;;;;;23.07;13.08;;;;;;;7.46;100.00;149532.64;1784714;78;21076;-60
2022/04/06 00:56:44;;;;;;;23.83;13.70;;;;;;;7.45;100.00;149531.38;1802050;78;20932;-60
2022/04/06 00:59:17;;;;;;;26.48;12.70;;;;;;;7.45;100.00;149530.06;1802156;79;38737;-60
2022/04/06 01:01:49;;;;;;;22.22;13.70;;;;;;;7.43;100.00;149524.88;1797289;78;20954;-60
2022/04/06 01:04:18;;;;;;;24.32;13.40;;;;;;;7.42;100.00;149522.30;1792624;79;21884;-60
2022/04/06 01:06:48;;;;;;;23.80;14.50;;;;;;;7.41;100.00;149521.03;1795855;79;20946;-61
2022/04/06 01:09:16;;;;;;;25.08;13.95;;;;;;;7.42;100.00;149522.30;1796530;79;21062;-60
2022/04/06 01:11:46;;;;;;;25.12;14.30;;;;;;;7.42;100.00;149523.61;1801127;79;20978;-59
2022/04/06 01:14:14;;;;;;;29.20;14.47;;;;;;;7.43;100.00;149526.20;1785322;79;21280;-59
2022/04/06 01:17:02;;;;;;;24.90;15.43;;;;;;;7.43;100.00;149524.88;1787680;79;21083;-60
2022/04/06 01:19:37;;;;;;;30.57;16.37;;;;;;;7.42;100.00;149523.61;1794364;78;21866;-60
2022/04/06 01:22:12;;;;;;;26.93;16.25;;;;;;;7.41;100.00;149519.72;1791704;79;21037;-61
2022/04/06 01:24:40;;;;;;;31.27;17.45;;;;;;;7.39;100.00;149515.80;1792495;79;20998;-61
2022/04/06 01:27:08;;;;;;;25.82;16.17;;;;;;;7.39;100.00;149515.80;1801986;79;21102;-61
2022/04/06 01:29:35;;;;;;;28.57;16.80;;;;;;;7.37;100.00;149510.62;1775704;79;21235;-60
2022/04/06 01:32:17;;;;;;;31.48;17.55;;;;;;;7.38;100.00;149513.22;1800900;78;21122;-61
2022/04/06 01:34:45;;;;;;;30.97;18.57;;;;;;;7.38;100.00;149513.22;1801324;78;21003;-61
2022/04/06 01:37:13;;;;;;;34.35;18.52;;;;;;;7.40;100.00;149518.39;1791406;78;21049;-60
2022/04/06 01:39:42;;;;;;;38.67;20.60;;;;;;;7.41;100.00;149519.72;1782595;80;21051;-60
2022/04/06 01:42:11;;;;;;;34.25;19.60;;;;;;;7.39;100.00;149515.80;1781128;80;21002;-60
2022/04/06 01:44:39;;;;;;;29.90;20.12;;;;;;;7.38;100.00;149511.95;1774830;79;21003;-60
2022/04/06 01:47:07;;;;;;;38.20;21.17;;;;;;;7.36;100.00;149508.03;1778181;79;21032;-60
2022/04/06 01:52:21;;;;;;;40.92;23.15;;;;;;;7.25;100.00;149479.59;1780536;79;21408;-60
2022/04/06 01:54:52;;;;;;;39.98;23.60;;;;;;;7.19;100.00;149464.06;1774234;80;21799;-59
2022/04/06 01:57:20;;;;;;;44.95;24.47;;;;;;;7.13;100.00;149449.81;1776223;80;21070;-60
2022/04/06 01:59:49;;;;;;;41.88;25.00;;;;;;;7.05;100.00;149430.41;1776274;79;20911;-61
2022/04/06 02:02:18;;;;;;;56.35;28.40;;;;;;;7.01;100.00;149420.05;1769114;80;21152;-62
2022/04/06 02:04:45;;;;;;;47.08;26.95;;;;;;;6.94;100.00;149401.91;1778406;80;21021;-59
2022/04/06 02:07:13;;;;;;;53.33;30.30;;;;;;;6.86;100.00;149383.80;1781810;80;21235;-60
2022/04/06 02:09:41;;;;;;;50.33;27.32;;;;;;;6.80;100.00;149368.28;1778542;80;21003;-60
2022/04/06 02:12:11;;;;;;;54.65;29.07;;;;;;;6.75;100.00;149355.36;1783279;79;21469;-60
2022/04/06 02:14:40;;;;;;;57.85;32.38;;;;;;;6.70;100.00;149342.37;1778531;80;21011;-60
2022/04/06 02:17:09;;;;;;;50.40;29.65;;;;;;;6.67;100.00;149335.94;1775771;80;21032;-60
2022/04/06 02:19:37;;;;;;;57.78;31.12;;;;;;;6.63;100.00;149324.28;1777302;80;21007;-60
2022/04/06 02:22:07;;;;;;;53.00;30.82;;;;;;;6.57;100.00;149311.34;1777009;80;20994;-60
2022/04/06 02:24:34;;;;;;;55.35;31.62;;;;;;;6.51;100.00;149295.80;1774532;80;21599;-60
2022/04/06 02:27:02;;;;;;;54.15;32.05;;;;;;;6.45;100.00;149280.28;1775266;80;21110;-60
2022/04/06 02:29:29;;;;;;;58.78;31.62;;;;;;;6.40;100.00;149267.36;1780576;80;21187;-60
2022/04/06 02:31:56;;;;;;;52.15;29.90;;;;;;;6.36;100.00;149257.02;1776091;79;21235;-60
2022/04/06 02:34:23;;;;;;;49.55;31.00;;;;;;;6.33;100.00;149249.27;1778312;80;21062;-60
2022/04/06 02:36:51;;;;;;;56.68;30.40;;;;;;;6.29;100.00;149241.47;1779098;79;20948;-60
2022/04/06 02:39:18;;;;;;;55.70;32.67;;;;;;;6.24;100.00;149228.53;1800983;79;21143;-60
2022/04/06 02:41:45;;;;;;;56.28;33.88;;;;;;;6.21;100.00;149220.78;1799956;79;21038;-60
2022/04/06 02:44:12;;;;;;;52.73;31.62;;;;;;;6.18;100.00;149213.03;1792877;78;21132;-60
2022/04/06 02:46:40;;;;;;;58.68;33.55;;;;;;;6.17;100.00;149210.44;1797584;79;21366;-60
2022/04/06 02:49:08;;;;;;;59.88;31.75;;;;;;;6.12;100.00;149197.53;1789407;79;21054;-60
2022/04/06 02:51:35;;;;;;;56.30;32.38;;;;;;;6.08;100.00;149187.14;1791087;78;21497;-60
2022/04/06 02:54:04;;;;;;;57.45;31.82;;;;;;;6.02;100.00;149174.22;1794241;79;21526;-60
2022/04/06 02:56:31;;;;;;;56.25;31.73;;;;;;;6.00;100.00;149167.73;1786503;79;21141;-59
2022/04/06 02:58:59;;;;;;;55.12;32.48;;;;;;;5.96;100.00;149157.34;1789797;79;21114;-60
2022/04/06 03:01:26;;;;;;;54.27;31.02;;;;;;;5.91;100.00;149145.75;1803139;79;21046;-61
2022/04/06 03:03:55;;;;;;;52.33;32.30;;;;;;;5.88;100.00;149138.00;1797732;79;21031;-61
2022/04/06 03:06:22;;;;;;;62.27;32.78;;;;;;;5.86;100.00;149134.09;1789674;78;21077;-61
2022/04/06 03:08:49;;;;;;;56.60;32.35;;;;;;;5.84;100.00;149127.61;1798963;78;21346;-61
2022/04/06 03:11:16;;;;;;;57.00;30.60;;;;;;;5.78;100.00;149113.42;1793151;79;21615;-61
2022/04/06 03:13:44;;;;;;;54.73;31.15;;;;;;;5.77;100.00;149110.84;1800715;78;21017;-61
2022/04/06 03:16:11;;;;;;;53.92;32.23;;;;;;;5.76;100.00;149106.94;1789541;78;21091;-61
2022/04/06 03:18:38;;;;;;;58.13;32.85;;;;;;;5.73;100.00;149101.77;1787459;79;21053;-60
2022/04/06 03:21:06;;;;;;;57.45;32.55;;;;;;;5.73;100.00;149100.45;1791662;79;21223;-60
2022/04/06 03:23:33;;;;;;;59.25;33.02;;;;;;;5.72;100.00;149099.19;1793676;79;21121;-59
2022/04/06 03:26:00;;;;;;;57.88;32.83;;;;;;;5.72;100.00;149099.19;1798046;78;21253;-61
2022/04/06 03:28:27;;;;;;;53.98;29.98;;;;;;;5.71;100.00;149096.59;1794513;79;21038;-60
2022/04/06 03:30:55;;;;;;;53.48;29.18;;;;;;;5.70;100.00;149094.02;1798789;79;21026;-60
2022/04/06 03:33:22;;;;;;;53.95;30.43;;;;;;;5.70;100.00;148248.63;1795028;78;21530;-59
2022/04/06 03:35:52;;;;;;;48.98;28.80;;;;;;;5.76;100.00;138593.89;1794068;79;20836;-59
2022/04/06 03:38:19;;;;;;;50.50;27.67;;;;;;;5.80;100.00;132927.92;1796941;79;21034;-60
2022/04/06 03:40:46;;;;;;;49.15;27.73;;;;;;;5.82;100.00;128639.87;1792950;79;21459;-60
2022/04/06 03:43:14;;;;;;;50.60;28.98;;;;;;;5.85;100.00;127272.45;1793620;79;21104;-61
2022/04/06 03:45:42;;;;;;;54.18;27.37;;;;;;;5.87;100.00;125561.38;1789955;79;21242;-60
2022/04/06 03:48:10;;;;;;;49.58;26.82;;;;;;;5.91;100.00;121284.59;1796374;78;21028;-60
2022/04/06 03:50:38;;;;;;;42.73;25.95;;;;;;;5.98;100.00;115820.85;1783975;78;20965;-60
2022/04/06 03:53:05;;;;;;;46.18;26.42;;;;;;;6.05;100.00;113268.61;1796088;79;21062;-60
2022/04/06 03:55:33;;;;;;;51.37;27.93;;;;;;;6.14;100.00;107647.30;1802340;79;21129;-60
2022/04/06 03:58:00;;;;;;;42.80;25.68;;;;;;;6.23;100.00;105103.12;1800345;78;21579;-60
2022/04/06 04:00:29;;;;;;;45.25;27.15;;;;;;;6.29;100.00;106651.02;1798663;78;21400;-60
2022/04/06 04:02:56;;;;;;;47.15;26.55;;;;;;;6.36;100.00;108540.66;1801629;79;21460;-60
2022/04/06 04:05:24;;;;;;;41.83;25.88;;;;;;;6.43;100.00;110775.45;1798150;78;21045;-60
2022/04/06 04:07:51;;;;;;;40.65;25.80;;;;;;;6.50;100.00;111814.87;1768310;79;20977;-60
2022/04/06 04:10:21;;;;;;;42.85;25.20;;;;;;;6.58;100.00;113027.94;1798373;79;21568;-59
2022/04/06 04:12:49;;;;;;;42.95;23.22;;;;;;;6.68;100.00;113901.33;1795857;79;20944;-60
2022/04/06 04:15:16;;;;;;;41.18;23.98;;;;;;;6.77;100.00;114946.48;1795460;79;21089;-60
2022/04/06 04:17:45;;;;;;;43.85;24.02;;;;;;;6.86;100.00;117020.27;1786908;78;20994;-60
2022/04/06 04:20:13;;;;;;;41.48;22.75;;;;;;;6.90;100.00;124919.63;1794366;79;21065;-59
2022/04/06 04:22:41;;;;;;;37.13;21.02;;;;;;;6.95;100.00;131807.09;1793790;78;21225;-60
2022/04/06 04:25:10;;;;;;;34.53;19.87;;;;;;;6.97;100.00;138530.59;1794488;79;21036;-61
2022/04/06 04:27:37;;;;;;;31.05;20.17;;;;;;;7.00;100.00;144341.19;1791416;78;21093;-60
2022/04/06 04:30:06;;;;;;;38.90;22.05;;;;;;;7.02;100.00;148271.41;1781323;79;21563;-61
2022/04/06 04:32:34;;;;;;;36.73;21.12;;;;;;;7.06;100.00;149432.98;1795586;78;21014;-61
2022/04/06 04:35:05;;;;;;;35.92;20.48;;;;;;;7.13;100.00;149449.81;1800099;79;21223;-60
2022/04/06 04:37:32;;;;;;;40.08;21.15;;;;;;;7.22;100.00;149471.83;1792278;79;21100;-60
2022/04/06 04:40:00;;;;;;;36.53;20.82;;;;;;;7.28;100.00;149487.34;1793390;78;21049;-60
2022/04/06 04:42:29;;;;;;;36.58;20.70;;;;;;;7.35;100.00;149505.45;1796746;78;21010;-60
2022/04/06 04:44:56;;;;;;;30.60;20.45;;;;;;;7.42;100.00;149523.61;1796501;79;20979;-60
2022/04/06 04:47:23;;;;;;;31.23;18.57;;;;;;;7.54;100.00;149552.06;1786918;79;21211;-60
2022/04/06 04:49:50;;;;;;;33.78;19.55;;;;;;;7.64;100.00;149576.67;1793925;79;20982;-60
2022/04/06 04:52:18;;;;;;;31.75;19.32;;;;;;;7.76;100.00;149606.45;1784247;79;21080;-60
2022/04/06 04:54:46;;;;;;;31.55;18.67;;;;;;;7.91;100.00;149644.00;1797643;78;21034;-60
2022/04/06 04:57:13;;;;;;;25.23;16.60;;;;;;;8.06;100.00;149681.55;1794020;79;21328;-60
2022/04/06 04:59:40;;;;;;;29.77;17.87;;;;;;;8.23;100.00;149724.34;1798195;78;21223;-61
2022/04/06 05:02:07;;;;;;;30.20;17.70;;;;;;;8.39;100.00;149765.75;1795288;79;21054;-60
2022/04/06 05:04:35;;;;;;;28.50;17.32;;;;;;;8.56;100.00;149808.59;1802039;79;21090;-60
2022/04/06 05:07:03;;;;;;;27.62;15.93;;;;;;;8.72;100.00;149847.44;1797144;79;21049;-60
2022/04/06 05:09:30;;;;;;;24.40;15.55;;;;;;;8.87;100.00;149886.33;1797524;79;21058;-60
2022/04/06 05:11:58;;;;;;;25.45;14.18;;;;;;;9.02;100.00;149923.91;1790854;79;21554;-62
2022/04/06 05:14:27;;;;;;;23.55;14.07;;;;;;;9.17;100.00;149961.53;1797278;78;21047;-60
2022/04/06 05:16:54;;;;;;;21.82;13.28;;;;;;;9.33;100.00;150000.41;1791389;79;21116;-60
2022/04/06 05:22:01;;;;;;;21.68;13.98;;;;;;;9.71;100.00;150096.36;1832449;77;28250;-61
2022/04/06 05:24:30;;;;;;;26.50;14.50;;;;;;;9.85;100.00;150130.11;1806844;78;21426;-60
2022/04/06 05:27:00;;;;;;;20.17;13.13;;;;;;;10.02;100.00;150174.17;1807157;78;20942;-60
2022/04/06 05:29:27;;;;;;;21.27;13.00;;;;;;;10.21;100.00;150219.59;1804817;79;21406;-60
2022/04/06 05:31:55;;;;;;;20.32;13.40;;;;;;;10.42;100.00;150272.83;1791339;78;21365;-60
2022/04/06 05:34:23;;;;;;;22.37;13.38;;;;;;;10.64;100.00;150327.33;1794925;78;21470;-61
2022/04/06 05:36:51;;;;;;;24.77;13.08;;;;;;;10.85;100.00;150381.84;1793193;79;20954;-61
2022/04/06 05:39:18;;;;;;;20.50;12.33;;;;;;;11.07;99.25;150436.36;1804120;78;21284;-60
2022/04/06 05:41:46;;;;;;;21.70;11.43;;;;;;;11.28;98.06;150488.28;1789612;78;21436;-61
2022/04/06 05:44:13;;;;;;;16.77;10.38;;;;;;;11.48;96.68;150537.63;1791462;78;22082;-60
2022/04/06 05:46:40;;;;;;;17.15;9.78;;;;;;;11.65;95.08;150581.80;1802551;79;21112;-61
2022/04/06 05:49:08;;;;;;;18.55;9.70;;;;;;;11.77;93.43;150611.66;1794034;78;21534;-60
2022/04/06 05:51:36;;;;;;;17.65;9.08;;;;;;;11.90;92.22;150644.13;1789698;79;21419;-60
2022/04/06 05:54:04;;;;;;;13.75;9.48;;;;;;;12.03;90.82;150677.92;1813162;78;21071;-59
2022/04/06 05:56:32;;;;;;;12.80;8.03;;;;;;;12.18;89.38;150714.31;1799515;78;20974;-62
2022/04/06 05:59:00;;;;;;;15.58;9.33;;;;;;;12.31;88.49;150748.11;1800510;78;21256;-59
2022/04/06 06:01:27;;;;;;;16.93;8.40;;;;;;;12.55;87.91;150807.89;1802300;78;21092;-59
2022/04/06 06:03:55;;;;;;;12.90;7.78;;;;;;;13.00;86.94;150919.66;1773653;79;21887;-59
2022/04/06 06:06:23;;;;;;;12.68;7.70;;;;;;;13.64;84.62;151079.62;1795163;78;21025;-60
2022/04/06 06:08:52;;;;;;;12.80;7.22;;;;;;;14.15;81.56;151208.41;1799956;78;20990;-60
2022/04/06 06:11:20;;;;;;;12.37;7.12;;;;;;;14.58;79.35;151317.70;1797575;78;21469;-60
2022/04/06 06:13:47;;;;;;;13.45;7.10;;;;;;;15.25;76.95;151484.37;1801080;78;20847;-60
2022/04/06 06:16:15;;;;;;;11.65;7.37;;;;;;;16.03;73.70;151681.06;1798940;78;21225;-59
2022/04/06 06:18:42;;;;;;;13.43;7.10;;;;;;;16.77;69.90;151867.41;1792530;78;21046;-60
2022/04/06 06:21:10;;;;;;;10.48;6.72;;;;;;;17.15;66.57;151963.92;1790054;78;20966;-61
2022/04/06 06:23:38;;;;;;;9.83;6.42;;;;;;;17.42;64.75;152031.70;1800511;78;21009;-62
2022/04/06 06:26:05;;;;;;;10.45;7.10;;;;;;;17.75;62.26;152115.13;1764617;78;21060;-61
2022/04/06 06:28:32;;;;;;;8.75;6.40;;;;;;;18.01;60.65;152179.06;1796051;78;21234;-60
2022/04/06 06:30:59;;;;;;;9.33;6.75;;;;;;;18.00;58.59;152177.73;1812212;78;20943;-61
2022/04/06 06:33:27;;;;;;;12.58;6.62;;;;;;;17.76;57.73;152117.73;1810918;78;20977;-60
2022/04/06 06:35:54;;;;;;;11.10;6.92;;;;;;;17.50;57.81;152049.94;1789444;80;20945;-61
2022/04/06 06:38:21;;;;;;;11.08;7.03;;;;;;;17.27;57.76;151993.91;1791900;78;20973;-59
2022/04/06 06:40:48;;;;;;;14.15;7.10;;;;;;;17.13;57.35;151958.70;1792511;78;21242;-61
2022/04/06 06:43:16;;;;;;;9.65;6.67;;;;;;;16.96;57.16;151914.33;1804054;78;21140;-60
2022/04/06 06:45:43;;;;;;;13.08;6.90;;;;;;;16.80;57.48;151875.22;1797274;78;21018;-60
2022/04/06 06:48:10;;;;;;;9.98;5.97;;;;;;;16.69;57.86;151846.52;1796709;78;20958;-61
2022/04/06 06:50:38;;;;;;;11.50;6.15;;;;;;;16.67;58.01;151841.31;1804452;78;20978;-60
2022/04/06 06:53:07;;;;;;;18.45;9.38;;;;;;;16.63;57.74;151830.89;1794231;78;20939;-61
2022/04/06 06:55:34;;;;;;;15.78;9.98;;;;;;;16.54;58.14;151810.06;1791332;78;21018;-60
2022/04/06 06:58:02;;;;;;;22.32;12.28;;;;;;;16.47;58.60;151791.83;1797220;78;21073;-60
2022/04/06 07:00:30;;;;;;;24.12;13.40;;;;;;;16.36;59.06;151764.47;1801955;78;21102;-61
2022/04/06 07:02:58;;;;;;;23.07;13.48;;;;;;;16.28;59.64;151744.91;1809270;78;21002;-60
2022/04/06 07:05:25;;;;;;;22.48;13.95;;;;;;;16.18;59.90;151720.16;1799531;78;21001;-61
2022/04/06 07:07:53;;;;;;;24.92;14.05;;;;;;;16.03;60.14;151682.39;1799758;78;20962;-60
2022/04/06 07:10:26;;;;;;;23.98;13.05;;;;;;;15.94;60.76;151658.91;1797618;78;21116;-61
2022/04/06 07:12:54;;;;;;;26.50;14.05;;;;;;;15.90;61.04;151648.50;1804686;78;20997;-61
2022/04/06 07:15:21;;;;;;;23.62;12.93;;;;;;;15.86;61.25;151639.31;1798394;78;21535;-61
2022/04/06 07:17:54;;;;;;;25.32;13.40;;;;;;;15.79;61.41;151619.78;1797125;78;20919;-61
2022/04/06 07:20:23;;;;;;;25.23;13.10;;;;;;;15.68;61.65;151592.42;1794055;78;21042;-61
2022/04/06 07:22:51;;;;;;;23.47;11.83;;;;;;;15.61;62.21;151575.53;1798203;79;21061;-60
2022/04/06 07:25:19;;;;;;;20.45;11.50;;;;;;;15.59;62.54;151570.33;1791535;79;21037;-61
2022/04/06 07:27:48;;;;;;;22.13;10.93;;;;;;;15.59;62.70;151570.33;1786626;79;20944;-60
2022/04/06 07:30:15;;;;;;;20.02;10.18;;;;;;;15.59;62.89;151570.33;1789702;78;21188;-60
2022/04/06 07:32:42;;;;;;;19.17;11.10;;;;;;;15.60;63.08;151572.94;1798956;79;21058;-60
2022/04/06 07:35:10;;;;;;;19.57;10.38;;;;;;;15.62;62.97;151578.12;1783052;79;20978;-60
2022/04/06 07:37:39;;;;;;;18.05;9.78;;;;;;;15.61;63.02;151575.53;1786247;79;21044;-61
2022/04/06 07:40:08;;;;;;;16.50;9.68;;;;;;;15.62;63.16;151578.12;1783456;79;21240;-60
2022/04/06 07:42:36;;;;;;;21.90;10.10;;;;;;;15.66;62.67;151587.22;1788900;79;21773;-61
2022/04/06 07:45:13;;;;;;;18.50;10.35;;;;;;;15.69;62.23;151596.34;1791421;79;21007;-61
2022/04/06 07:47:40;;;;;;;18.00;10.13;;;;;;;15.68;61.92;151593.75;1795145;79;21030;-61
2022/04/06 07:50:08;;;;;;;19.92;9.83;;;;;;;15.63;61.51;151579.41;1800039;79;21132;-61
2022/04/06 07:52:36;;;;;;;21.00;10.03;;;;;;;15.59;60.96;151571.61;1791544;79;21018;-61
2022/04/06 07:55:06;;;;;;;17.80;9.43;;;;;;;15.59;60.08;151570.33;1805213;79;21238;-61
2022/04/06 07:57:34;;;;;;;18.60;9.95;;;;;;;15.60;59.57;151572.94;1783808;79;21084;-60
2022/04/06 08:00:05;;;;;;;18.80;9.50;;;;;;;15.59;59.50;151570.33;1788152;79;21051;-61
2022/04/06 08:02:33;;;;;;;20.88;10.03;;;;;;;15.61;59.60;151576.81;1792276;79;21074;-61
2022/04/06 08:05:00;;;;;;;17.87;10.28;;;;;;;15.60;59.73;151572.94;1792359;79;21101;-60
2022/04/06 08:07:27;;;;;;;17.57;9.53;;;;;;;15.57;60.15;151565.08;1785765;79;21206;-61
2022/04/06 08:09:55;;;;;;;21.68;9.20;;;;;;;15.58;60.33;151569.00;1790496;78;21136;-61
2022/04/06 08:12:22;;;;;;;17.48;8.85;;;;;;;15.56;59.73;151563.80;1788664;79;21480;-60
2022/04/06 08:14:51;;;;;;;15.68;9.80;;;;;;;15.52;59.58;151553.39;1795936;78;20986;-61
2022/04/06 08:17:19;;;;;;;18.07;9.88;;;;;;;15.49;59.86;151544.25;1786439;79;20990;-61
2022/04/06 08:19:47;;;;;;;16.67;8.55;;;;;;;15.43;59.28;151529.92;1787544;79;21247;-61
2022/04/06 08:22:15;;;;;;;15.60;8.60;;;;;;;15.39;58.91;151520.84;1777765;79;21065;-61
2022/04/06 08:24:51;;;;;;;14.20;8.13;;;;;;;15.37;58.59;151514.31;1791985;78;21067;-61
2022/04/06 08:27:19;;;;;;;24.20;8.23;;;;;;;15.34;58.10;151507.78;1776614;78;21098;-61
2022/04/06 08:29:46;;;;;;;14.73;8.98;;;;;;;15.29;57.61;151496.09;1789932;78;21054;-61
2022/04/06 08:32:15;;;;;;;17.07;7.83;;;;;;;15.26;57.39;151486.97;1707518;79;21029;-61
2022/04/06 08:34:44;;;;;;;14.50;6.90;;;;;;;15.23;56.81;151479.16;1703557;84;21060;-60
2022/04/06 08:37:14;;;;;;;15.43;7.20;;;;;;;15.22;56.44;151476.56;1706463;84;21056;-60
2022/04/06 08:39:53;;;;;;;12.95;7.33;;;;;;;15.21;55.93;151473.97;1706144;83;21032;-61
2022/04/06 08:42:20;;;;;;;15.58;7.15;;;;;;;15.16;56.06;151463.56;1704840;83;21107;-60
2022/04/06 08:44:48;;;;;;;13.62;7.47;;;;;;;15.16;56.53;151462.22;1704771;84;21208;-59
2022/04/06 08:47:16;;;;;;;14.58;7.70;;;;;;;15.18;56.23;151468.75;1706925;83;21110;-60
2022/04/06 08:49:43;;;;;;;13.20;7.37;;;;;;;15.21;56.28;151475.23;1678688;83;21115;-62
2022/04/06 08:52:12;;;;;;;12.58;7.42;;;;;;;15.20;56.23;151472.64;1704147;82;21018;-61
2022/04/06 08:54:40;;;;;;;12.35;8.00;;;;;;;15.13;56.71;151455.70;1702140;83;21131;-60
2022/04/06 08:57:08;;;;;;;14.05;7.90;;;;;;;15.10;57.34;151447.91;1703890;83;21900;-61
2022/04/06 08:59:35;;;;;;;13.68;7.67;;;;;;;15.07;57.76;151440.09;1704743;83;21766;-61
2022/04/06 09:02:03;;;;;;;15.75;7.40;;;;;;;15.02;58.04;151428.36;1703472;83;21419;-62
2022/04/06 09:04:35;;;;;;;14.10;6.87;;;;;;;14.95;58.49;151410.16;1706447;83;21084;-62
2022/04/06 09:07:09;;;;;;;10.68;6.55;;;;;;;14.90;58.51;151398.42;1703499;82;21034;-60
2022/04/06 09:09:36;;;;;;;12.93;7.20;;;;;;;14.88;58.12;151393.22;1705439;83;21385;-61
2022/04/06 09:12:08;;;;;;;12.15;5.95;;;;;;;14.85;57.76;151385.42;1705604;83;21017;-61
2022/04/06 09:14:36;;;;;;;12.18;6.67;;;;;;;14.83;57.77;151378.94;1703110;83;21023;-61
2022/04/06 09:17:05;;;;;;;12.65;5.80;;;;;;;14.80;57.73;151372.41;1704235;83;21021;-61
2022/04/06 09:19:37;;;;;;;9.53;6.00;;;;;;;14.77;57.66;151364.61;1703265;82;21157;-60
2022/04/06 09:22:07;;;;;;;10.25;5.83;;;;;;;14.70;57.90;151347.62;1704478;83;21532;-60
2022/04/06 09:24:36;;;;;;;11.73;6.05;;;;;;;14.71;58.05;151350.28;1703794;84;21101;-61
2022/04/06 09:27:05;;;;;;;9.83;5.80;;;;;;;14.76;57.79;151362.02;1704677;83;20917;-60
2022/04/06 09:29:34;;;;;;;10.50;5.80;;;;;;;14.78;57.65;151367.22;1704200;83;21143;-60
2022/04/06 09:32:10;;;;;;;13.03;6.45;;;;;;;14.81;57.38;151375.02;1699257;84;21108;-60
2022/04/06 09:34:38;;;;;;;9.95;5.97;;;;;;;14.83;57.13;151380.22;1695925;84;21884;-60
2022/04/06 09:37:29;;;;;;;10.35;5.55;;;;;;;14.81;57.22;151375.02;1695103;84;21032;-61
2022/04/06 09:39:58;;;;;;;12.43;6.37;;;;;;;14.75;57.46;151359.41;1691947;83;21112;-61
2022/04/06 09:42:27;;;;;;;12.43;6.08;;;;;;;14.67;58.08;151338.50;1694632;83;21957;-60
2022/04/06 09:47:54;;;;;;;10.98;6.03;;;;;;;14.60;57.87;151322.91;1696618;84;21166;-60
2022/04/06 09:50:27;;;;;;;11.73;6.67;;;;;;;14.58;57.56;151317.70;1643752;85;21073;-60
2022/04/06 09:52:57;;;;;;;11.88;6.15;;;;;;;14.57;56.69;151315.09;1643234;86;21495;-61
2022/04/06 09:55:24;;;;;;;13.78;6.10;;;;;;;14.54;56.89;151307.30;1699568;83;21515;-60
2022/04/06 09:57:55;;;;;;;15.58;6.60;;;;;;;14.50;56.97;151295.58;1702155;83;21077;-61
2022/04/06 10:00:24;;;;;;;12.10;6.42;;;;;;;14.46;57.16;151286.45;1699991;83;21120;-60
2022/04/06 10:03:09;;;;;;;10.60;5.80;;;;;;;14.43;57.17;151278.66;1697427;84;21003;-61
2022/04/06 10:05:38;;;;;;;9.68;5.60;;;;;;;14.40;57.37;151270.84;1697752;84;20985;-61
2022/04/06 10:08:09;;;;;;;13.50;7.00;;;;;;;14.37;58.37;151263.05;1699446;84;21398;-61
2022/04/06 10:10:43;;;;;;;14.63;6.10;;;;;;;14.27;59.12;151239.66;1699299;84;21041;-60
2022/04/06 10:13:11;;;;;;;13.18;6.72;;;;;;;14.15;60.13;151209.73;1701820;84;21838;-60
2022/04/06 10:15:40;;;;;;;12.80;6.55;;;;;;;14.04;60.95;151181.08;1700752;84;21621;-60
2022/04/06 10:18:08;;;;;;;12.15;6.03;;;;;;;13.82;62.32;151125.17;1699142;84;21008;-60
2022/04/06 10:21:01;;;;;;;8.75;5.70;;;;;;;13.63;63.86;151078.34;1701187;83;21081;-61
2022/04/06 10:23:41;;;;;;;9.17;4.97;;;;;;;13.43;65.10;151028.92;1699839;84;21037;-60
2022/04/06 10:26:40;;;;;;;9.60;4.85;;;;;;;13.18;66.52;150966.47;1696876;83;21055;-60
2022/04/06 10:29:07;;;;;;;11.48;4.70;;;;;;;12.97;67.58;150913.14;1700120;84;20998;-61
2022/04/06 10:31:34;;;;;;;10.13;4.65;;;;;;;12.71;68.41;150848.16;1701769;83;21061;-61
2022/04/06 10:34:33;;;;;;;6.47;4.00;;;;;;;12.48;69.19;150789.66;1701425;84;21127;-60
2022/04/06 10:37:12;;;;;;;7.50;4.30;;;;;;;12.28;70.05;150740.33;1698989;84;21462;-59
2022/04/06 10:39:59;;;;;;;11.45;5.05;;;;;;;12.03;70.94;150677.92;1699017;84;21217;-60
2022/04/06 10:42:35;;;;;;;7.87;4.80;;;;;;;11.89;71.90;150642.81;1699611;83;21168;-60
2022/04/06 10:45:05;;;;;;;6.65;4.40;;;;;;;11.74;72.87;150605.16;1699532;84;21026;-62
2022/04/06 10:47:33;;;;;;;6.78;4.17;;;;;;;11.59;73.42;150566.17;1701674;84;21020;-60
2022/04/06 10:50:20;;;;;;;6.97;3.37;;;;;;;11.51;74.11;150545.42;1698830;83;21119;-61
2022/04/06 10:52:47;;;;;;;6.15;3.95;;;;;;;11.41;74.56;150522.06;1696450;84;21233;-62
2022/04/06 10:55:21;;;;;;;6.58;4.25;;;;;;;11.30;75.20;150493.47;1698007;84;21084;-60
2022/04/06 10:58:01;;;;;;;10.60;4.65;;;;;;;11.22;75.69;150472.72;1695086;84;21119;-61
2022/04/06 11:00:30;;;;;;;11.63;6.28;;;;;;;11.11;75.95;150446.73;1699177;84;21129;-61
2022/04/06 11:03:18;;;;;;;11.93;5.15;;;;;;;11.01;76.32;150420.78;1700566;83;21065;-61
2022/04/06 11:05:50;;;;;;;7.97;4.53;;;;;;;10.91;76.71;150394.80;1700244;83;20999;-61
2022/04/06 11:11:48;;;;;;;5.78;3.22;;;;;;;10.72;77.99;150348.06;1700782;84;21063;-61
2022/04/06 11:14:31;;;;;;;5.75;3.98;;;;;;;10.60;78.72;150318.22;1702345;83;21158;-61
2022/04/06 11:17:00;;;;;;;8.30;4.00;;;;;;;10.50;79.38;150292.30;1629895;85;21052;-60
2022/04/06 11:19:28;;;;;;;7.40;4.30;;;;;;;10.41;79.92;150270.23;1656555;86;21194;-60
2022/04/06 11:21:56;;;;;;;7.00;4.15;;;;;;;10.36;80.45;150258.50;1657350;85;21008;-59
2022/04/06 11:24:27;;;;;;;5.60;4.12;;;;;;;10.32;80.67;150249.44;1655635;84;21367;-59
2022/04/06 11:26:54;;;;;;;7.60;4.03;;;;;;;10.27;80.95;150236.44;1639224;85;21033;-60
2022/04/06 11:29:28;;;;;;;8.63;4.53;;;;;;;10.23;81.48;150224.78;1700713;83;21177;-59
2022/04/06 11:32:04;;;;;;;10.58;4.47;;;;;;;10.16;81.90;150207.91;1699106;82;21057;-61
2022/04/06 11:34:38;;;;;;;6.85;4.47;;;;;;;10.09;82.32;150191.03;1701368;84;21084;-59
2022/04/06 11:37:07;;;;;;;7.60;4.78;;;;;;;10.04;82.79;150178.08;1698921;83;21509;-60